sensor_id;sensor_type;location;lat;lon;timestamp;pressure;altitude;pressure_sealevel;temperature;humidity
79540;BME280;68991;52.122;5.406;2023-07-28T00:01:15;100579.38;;;21.48;69.80
79540;BME280;68991;52.122;5.406;2023-07-28T00:03:42;100573.06;;;21.48;69.69
79540;BME280;68991;52.122;5.406;2023-07-28T00:06:08;100570.31;;;21.48;69.71
79540;BME280;68991;52.122;5.406;2023-07-28T00:08:35;100580.41;;;21.47;69.58
79540;BME280;68991;52.122;5.406;2023-07-28T00:11:01;100575.97;;;21.46;69.50
79540;BME280;68991;52.122;5.406;2023-07-28T00:13:28;100570.50;;;21.46;69.46
79540;BME280;68991;52.122;5.406;2023-07-28T00:15:54;100572.38;;;21.46;69.42
79540;BME280;68991;52.122;5.406;2023-07-28T00:18:21;100566.03;;;21.45;69.49
79540;BME280;68991;52.122;5.406;2023-07-28T00:20:47;100569.63;;;21.46;69.78
79540;BME280;68991;52.122;5.406;2023-07-28T00:23:14;100565.16;;;21.45;69.91
79540;BME280;68991;52.122;5.406;2023-07-28T00:25:40;100564.28;;;21.44;69.68
79540;BME280;68991;52.122;5.406;2023-07-28T00:28:07;100562.44;;;21.45;69.77
79540;BME280;68991;52.122;5.406;2023-07-28T00:30:33;100562.59;;;21.43;69.44
79540;BME280;68991;52.122;5.406;2023-07-28T00:33:00;100560.69;;;21.44;69.59
79540;BME280;68991;52.122;5.406;2023-07-28T00:35:26;100563.44;;;21.44;69.50
79540;BME280;68991;52.122;5.406;2023-07-28T00:37:53;100560.88;;;21.42;69.86
79540;BME280;68991;52.122;5.406;2023-07-28T00:40:21;100561.72;;;21.43;69.27
79540;BME280;68991;52.122;5.406;2023-07-28T00:42:48;100564.59;;;21.41;69.83
79540;BME280;68991;52.122;5.406;2023-07-28T00:45:14;100558.13;;;21.42;69.44
79540;BME280;68991;52.122;5.406;2023-07-28T00:47:42;100563.75;;;21.41;69.89
79540;BME280;68991;52.122;5.406;2023-07-28T00:50:09;100567.34;;;21.41;69.89
79540;BME280;68991;52.122;5.406;2023-07-28T00:52:37;100561.88;;;21.41;69.45
79540;BME280;68991;52.122;5.406;2023-07-28T00:55:06;100558.44;;;21.39;69.52
79540;BME280;68991;52.122;5.406;2023-07-28T00:57:33;100556.41;;;21.41;69.74
79540;BME280;68991;52.122;5.406;2023-07-28T01:00:00;100559.31;;;21.40;69.79
79540;BME280;68991;52.122;5.406;2023-07-28T01:02:27;100557.41;;;21.40;69.56
79540;BME280;68991;52.122;5.406;2023-07-28T01:04:54;100555.72;;;21.39;69.55
79540;BME280;68991;52.122;5.406;2023-07-28T01:07:30;100562.19;;;21.38;69.76
79540;BME280;68991;52.122;5.406;2023-07-28T01:10:08;100570.38;;;21.38;69.33
79540;BME280;68991;52.122;5.406;2023-07-28T01:12:36;100570.38;;;21.38;69.51
79540;BME280;68991;52.122;5.406;2023-07-28T01:15:03;100574.84;;;21.39;69.29
79540;BME280;68991;52.122;5.406;2023-07-28T01:17:30;100564.03;;;21.38;69.64
79540;BME280;68991;52.122;5.406;2023-07-28T01:19:56;100571.38;;;21.37;69.69
79540;BME280;68991;52.122;5.406;2023-07-28T01:25:36;100568.66;;;21.37;69.85
79540;BME280;68991;52.122;5.406;2023-07-28T01:28:05;100572.44;;;21.36;69.83
79540;BME280;68991;52.122;5.406;2023-07-28T01:30:32;100585.06;;;21.37;69.32
79540;BME280;68991;52.122;5.406;2023-07-28T01:32:59;100580.63;;;21.36;69.31
79540;BME280;68991;52.122;5.406;2023-07-28T01:35:25;100588.84;;;21.36;69.58
79540;BME280;68991;52.122;5.406;2023-07-28T01:37:52;100586.25;;;21.34;69.37
79540;BME280;68991;52.122;5.406;2023-07-28T01:40:19;100589.84;;;21.35;69.68
79540;BME280;68991;52.122;5.406;2023-07-28T01:42:46;100592.56;;;21.35;69.67
79540;BME280;68991;52.122;5.406;2023-07-28T01:45:12;100590.84;;;21.34;69.14
79540;BME280;68991;52.122;5.406;2023-07-28T01:47:39;100580.75;;;21.34;69.69
79540;BME280;68991;52.122;5.406;2023-07-28T01:50:06;100584.50;;;21.33;69.74
79540;BME280;68991;52.122;5.406;2023-07-28T01:52:32;100579.91;;;21.34;69.27
79540;BME280;68991;52.122;5.406;2023-07-28T01:54:59;100583.63;;;21.33;69.35
79540;BME280;68991;52.122;5.406;2023-07-28T01:57:26;100584.50;;;21.33;69.23
79540;BME280;68991;52.122;5.406;2023-07-28T01:59:54;100577.16;;;21.34;69.44
79540;BME280;68991;52.122;5.406;2023-07-28T02:02:20;100577.34;;;21.32;69.65
79540;BME280;68991;52.122;5.406;2023-07-28T02:04:47;100579.22;;;21.32;69.53
79540;BME280;68991;52.122;5.406;2023-07-28T02:07:13;100588.28;;;21.32;69.39
79540;BME280;68991;52.122;5.406;2023-07-28T02:09:40;100583.81;;;21.31;69.66
79540;BME280;68991;52.122;5.406;2023-07-28T02:12:06;100582.94;;;21.31;69.24
79540;BME280;68991;52.122;5.406;2023-07-28T02:14:33;100586.53;;;21.31;69.33
79540;BME280;68991;52.122;5.406;2023-07-28T02:16:59;100585.69;;;21.31;69.06
79540;BME280;68991;52.122;5.406;2023-07-28T02:19:26;100585.69;;;21.31;69.09
79540;BME280;68991;52.122;5.406;2023-07-28T02:21:52;100582.94;;;21.31;69.38
79540;BME280;68991;52.122;5.406;2023-07-28T02:24:19;100573.88;;;21.30;69.47
79540;BME280;68991;52.122;5.406;2023-07-28T02:26:45;100573.00;;;21.30;69.19
79540;BME280;68991;52.122;5.406;2023-07-28T02:29:12;100589.41;;;21.30;69.12
79540;BME280;68991;52.122;5.406;2023-07-28T02:31:38;100583.94;;;21.30;69.24
79540;BME280;68991;52.122;5.406;2023-07-28T02:34:05;100579.34;;;21.30;69.39
79540;BME280;68991;52.122;5.406;2023-07-28T02:36:31;100574.03;;;21.29;69.00
79540;BME280;68991;52.122;5.406;2023-07-28T02:38:58;100574.03;;;21.29;69.12
79540;BME280;68991;52.122;5.406;2023-07-28T02:41:24;100576.78;;;21.29;69.09
79540;BME280;68991;52.122;5.406;2023-07-28T02:43:51;100584.97;;;21.29;69.20
79540;BME280;68991;52.122;5.406;2023-07-28T02:46:17;100586.84;;;21.28;69.17
79540;BME280;68991;52.122;5.406;2023-07-28T02:48:44;100587.72;;;21.29;69.14
79540;BME280;68991;52.122;5.406;2023-07-28T02:51:10;100588.72;;;21.28;68.95
79540;BME280;68991;52.122;5.406;2023-07-28T02:53:37;100595.19;;;21.27;69.42
79540;BME280;68991;52.122;5.406;2023-07-28T02:56:03;100596.06;;;21.27;68.99
79540;BME280;68991;52.122;5.406;2023-07-28T02:58:30;100596.94;;;21.28;68.94
79540;BME280;68991;52.122;5.406;2023-07-28T03:00:56;100603.41;;;21.27;69.14
79540;BME280;68991;52.122;5.406;2023-07-28T03:03:23;100606.13;;;21.27;69.42
79540;BME280;68991;52.122;5.406;2023-07-28T03:05:52;100602.53;;;21.26;69.40
79540;BME280;68991;52.122;5.406;2023-07-28T03:08:19;100597.22;;;21.25;69.16
79540;BME280;68991;52.122;5.406;2023-07-28T03:10:46;100596.19;;;21.26;68.86
79540;BME280;68991;52.122;5.406;2023-07-28T03:13:12;100609.03;;;21.25;69.21
79540;BME280;68991;52.122;5.406;2023-07-28T03:15:39;100605.44;;;21.25;68.84
79540;BME280;68991;52.122;5.406;2023-07-28T03:18:05;100603.69;;;21.24;69.01
79540;BME280;68991;52.122;5.406;2023-07-28T03:20:31;100613.63;;;21.25;68.86
79540;BME280;68991;52.122;5.406;2023-07-28T03:22:58;100612.78;;;21.24;69.33
79540;BME280;68991;52.122;5.406;2023-07-28T03:25:24;100615.50;;;21.24;69.15
79540;BME280;68991;52.122;5.406;2023-07-28T03:27:51;100618.25;;;21.24;69.19
79540;BME280;68991;52.122;5.406;2023-07-28T03:30:19;100619.09;;;21.25;69.02
79540;BME280;68991;52.122;5.406;2023-07-28T03:32:45;100618.25;;;21.24;69.38
79540;BME280;68991;52.122;5.406;2023-07-28T03:35:13;100621.09;;;21.23;69.04
79540;BME280;68991;52.122;5.406;2023-07-28T03:37:39;100633.78;;;21.24;69.27
79540;BME280;68991;52.122;5.406;2023-07-28T03:40:06;100625.56;;;21.24;69.17
79540;BME280;68991;52.122;5.406;2023-07-28T03:42:33;100633.78;;;21.24;69.34
79540;BME280;68991;52.122;5.406;2023-07-28T03:45:00;100632.91;;;21.23;69.01
79540;BME280;68991;52.122;5.406;2023-07-28T03:47:27;100630.19;;;21.23;69.33
79540;BME280;68991;52.122;5.406;2023-07-28T03:49:53;100637.53;;;21.23;68.89
79540;BME280;68991;52.122;5.406;2023-07-28T03:52:20;100638.38;;;21.23;69.41
79540;BME280;68991;52.122;5.406;2023-07-28T03:54:46;100629.88;;;21.26;69.45
79540;BME280;68991;52.122;5.406;2023-07-28T03:57:13;100636.94;;;21.29;68.99
79540;BME280;68991;52.122;5.406;2023-07-28T03:59:39;100632.31;;;21.29;69.24
79540;BME280;68991;52.122;5.406;2023-07-28T04:02:06;100627.69;;;21.30;69.24
79540;BME280;68991;52.122;5.406;2023-07-28T04:04:32;100640.38;;;21.31;69.27
79540;BME280;68991;52.122;5.406;2023-07-28T04:06:59;100632.88;;;21.33;69.33
79540;BME280;68991;52.122;5.406;2023-07-28T04:09:26;100633.72;;;21.33;69.71
79540;BME280;68991;52.122;5.406;2023-07-28T04:11:53;100634.47;;;21.36;69.89
79540;BME280;68991;52.122;5.406;2023-07-28T04:14:19;100637.19;;;21.36;69.97
79540;BME280;68991;52.122;5.406;2023-07-28T04:16:46;100637.19;;;21.36;69.37
79540;BME280;68991;52.122;5.406;2023-07-28T04:19:12;100638.91;;;21.37;69.56
79540;BME280;68991;52.122;5.406;2023-07-28T04:21:39;100638.06;;;21.36;69.81
79540;BME280;68991;52.122;5.406;2023-07-28T04:24:08;100636.16;;;21.37;69.92
79540;BME280;68991;52.122;5.406;2023-07-28T04:26:34;100639.75;;;21.37;69.56
79540;BME280;68991;52.122;5.406;2023-07-28T04:29:01;100635.31;;;21.36;69.60
79540;BME280;68991;52.122;5.406;2023-07-28T04:31:28;100644.38;;;21.37;69.78
79540;BME280;68991;52.122;5.406;2023-07-28T04:33:54;100640.63;;;21.38;70.12
79540;BME280;68991;52.122;5.406;2023-07-28T04:36:21;100646.97;;;21.38;70.66
79540;BME280;68991;52.122;5.406;2023-07-28T04:38:47;100645.09;;;21.39;70.92
79540;BME280;68991;52.122;5.406;2023-07-28T04:41:14;100644.09;;;21.40;70.71
79540;BME280;68991;52.122;5.406;2023-07-28T04:43:40;100643.91;;;21.41;70.47
79540;BME280;68991;52.122;5.406;2023-07-28T04:46:07;100650.25;;;21.42;70.90
79540;BME280;68991;52.122;5.406;2023-07-28T04:48:33;100645.66;;;21.42;71.45
79540;BME280;68991;52.122;5.406;2023-07-28T04:51:00;100643.78;;;21.43;71.85
79540;BME280;68991;52.122;5.406;2023-07-28T04:53:26;100652.84;;;21.43;71.86
79540;BME280;68991;52.122;5.406;2023-07-28T04:55:53;100654.56;;;21.44;71.75
79540;BME280;68991;52.122;5.406;2023-07-28T04:58:19;100657.28;;;21.44;71.30
79540;BME280;68991;52.122;5.406;2023-07-28T05:00:45;100661.06;;;21.43;71.42
79540;BME280;68991;52.122;5.406;2023-07-28T05:03:12;100659.16;;;21.44;71.95
79540;BME280;68991;52.122;5.406;2023-07-28T05:05:39;100666.38;;;21.45;72.46
79540;BME280;68991;52.122;5.406;2023-07-28T05:08:09;100651.69;;;21.46;72.70
79540;BME280;68991;52.122;5.406;2023-07-28T05:10:36;100658.03;;;21.46;72.60
79540;BME280;68991;52.122;5.406;2023-07-28T05:13:02;100656.16;;;21.47;72.44
79540;BME280;68991;52.122;5.406;2023-07-28T05:15:31;100661.63;;;21.47;72.53
79540;BME280;68991;52.122;5.406;2023-07-28T05:17:58;100657.84;;;21.48;72.38
79540;BME280;68991;52.122;5.406;2023-07-28T05:20:24;100657.84;;;21.48;72.65
79540;BME280;68991;52.122;5.406;2023-07-28T05:22:51;100658.72;;;21.48;72.85
79540;BME280;68991;52.122;5.406;2023-07-28T05:25:17;100663.03;;;21.51;72.85
79540;BME280;68991;52.122;5.406;2023-07-28T05:27:44;100652.25;;;21.49;72.60
79540;BME280;68991;52.122;5.406;2023-07-28T05:30:10;100651.25;;;21.50;72.52
79540;BME280;68991;52.122;5.406;2023-07-28T05:32:37;100652.06;;;21.51;72.61
79540;BME280;68991;52.122;5.406;2023-07-28T05:35:04;100654.81;;;21.51;72.80
79540;BME280;68991;52.122;5.406;2023-07-28T05:37:30;100652.94;;;21.51;73.36
79540;BME280;68991;52.122;5.406;2023-07-28T05:39:57;100654.66;;;21.52;73.28
79540;BME280;68991;52.122;5.406;2023-07-28T05:42:23;100654.66;;;21.52;73.37
79540;BME280;68991;52.122;5.406;2023-07-28T05:44:50;100659.13;;;21.53;73.63
79540;BME280;68991;52.122;5.406;2023-07-28T05:47:19;100669.03;;;21.54;73.38
79540;BME280;68991;52.122;5.406;2023-07-28T05:49:45;100669.78;;;21.56;73.50
79540;BME280;68991;52.122;5.406;2023-07-28T05:52:12;100668.91;;;21.56;73.04
79540;BME280;68991;52.122;5.406;2023-07-28T05:54:38;100668.78;;;21.57;72.35
79540;BME280;68991;52.122;5.406;2023-07-28T05:57:05;100682.44;;;21.57;72.46
79540;BME280;68991;52.122;5.406;2023-07-28T05:59:32;100679.72;;;21.57;72.96
79540;BME280;68991;52.122;5.406;2023-07-28T06:01:58;100684.16;;;21.58;73.13
79540;BME280;68991;52.122;5.406;2023-07-28T06:04:25;100681.41;;;21.58;72.48
79540;BME280;68991;52.122;5.406;2023-07-28T06:06:51;100689.63;;;21.58;72.33
79540;BME280;68991;52.122;5.406;2023-07-28T06:09:18;100687.06;;;21.57;71.59
79540;BME280;68991;52.122;5.406;2023-07-28T06:11:44;100685.19;;;21.57;71.87
79540;BME280;68991;52.122;5.406;2023-07-28T06:14:11;100689.63;;;21.58;72.39
79540;BME280;68991;52.122;5.406;2023-07-28T06:16:37;100694.09;;;21.59;71.97
79540;BME280;68991;52.122;5.406;2023-07-28T06:19:04;100682.16;;;21.60;72.37
79540;BME280;68991;52.122;5.406;2023-07-28T06:21:30;100686.59;;;21.61;72.11
79540;BME280;68991;52.122;5.406;2023-07-28T06:23:57;100685.75;;;21.61;72.03
79540;BME280;68991;52.122;5.406;2023-07-28T06:26:23;100703.00;;;21.61;71.93
79540;BME280;68991;52.122;5.406;2023-07-28T06:28:50;100704.72;;;21.62;72.06
79540;BME280;68991;52.122;5.406;2023-07-28T06:31:17;100711.06;;;21.63;72.09
79540;BME280;68991;52.122;5.406;2023-07-28T06:33:43;100703.88;;;21.62;72.10
79540;BME280;68991;52.122;5.406;2023-07-28T06:36:10;100708.47;;;21.61;72.03
79540;BME280;68991;52.122;5.406;2023-07-28T06:38:36;100707.47;;;21.62;71.92
79540;BME280;68991;52.122;5.406;2023-07-28T06:41:03;100710.19;;;21.62;71.47
79540;BME280;68991;52.122;5.406;2023-07-28T06:43:29;100721.16;;;21.62;71.74
79540;BME280;68991;52.122;5.406;2023-07-28T06:45:56;100722.88;;;21.63;71.62
79540;BME280;68991;52.122;5.406;2023-07-28T06:48:22;100733.81;;;21.63;71.77
79540;BME280;68991;52.122;5.406;2023-07-28T06:50:49;100735.69;;;21.63;71.86
79540;BME280;68991;52.122;5.406;2023-07-28T06:53:15;100734.81;;;21.62;71.87
79540;BME280;68991;52.122;5.406;2023-07-28T06:55:43;100739.31;;;21.63;72.06
79540;BME280;68991;52.122;5.406;2023-07-28T06:58:10;100742.91;;;21.64;71.47
79540;BME280;68991;52.122;5.406;2023-07-28T07:00:36;100745.63;;;21.64;71.77
79540;BME280;68991;52.122;5.406;2023-07-28T07:03:03;100741.03;;;21.64;71.21
79540;BME280;68991;52.122;5.406;2023-07-28T07:05:30;100744.78;;;21.63;71.49
79540;BME280;68991;52.122;5.406;2023-07-28T07:07:57;100752.13;;;21.63;71.40
79540;BME280;68991;52.122;5.406;2023-07-28T07:10:24;100745.63;;;21.64;71.67
79540;BME280;68991;52.122;5.406;2023-07-28T07:12:51;100751.97;;;21.64;71.55
79540;BME280;68991;52.122;5.406;2023-07-28T07:15:17;100747.50;;;21.63;71.00
79540;BME280;68991;52.122;5.406;2023-07-28T07:17:44;100750.25;;;21.63;71.37
79540;BME280;68991;52.122;5.406;2023-07-28T07:20:11;100752.97;;;21.63;71.07
79540;BME280;68991;52.122;5.406;2023-07-28T07:22:37;100756.59;;;21.64;71.58
79540;BME280;68991;52.122;5.406;2023-07-28T07:25:04;100754.84;;;21.63;71.17
79540;BME280;68991;52.122;5.406;2023-07-28T07:27:31;100765.78;;;21.63;71.13
79540;BME280;68991;52.122;5.406;2023-07-28T07:29:57;100758.44;;;21.63;71.06
79540;BME280;68991;52.122;5.406;2023-07-28T07:32:24;100758.44;;;21.63;71.19
79540;BME280;68991;52.122;5.406;2023-07-28T07:34:50;100763.94;;;21.63;71.12
79540;BME280;68991;52.122;5.406;2023-07-28T07:37:19;100765.78;;;21.63;71.16
79540;BME280;68991;52.122;5.406;2023-07-28T07:39:45;100777.59;;;21.63;71.32
79540;BME280;68991;52.122;5.406;2023-07-28T07:42:12;100767.53;;;21.64;70.95
79540;BME280;68991;52.122;5.406;2023-07-28T07:44:40;100779.34;;;21.64;71.25
79540;BME280;68991;52.122;5.406;2023-07-28T07:47:14;100779.47;;;21.63;71.05
79540;BME280;68991;52.122;5.406;2023-07-28T07:49:42;100781.22;;;21.64;71.03
79540;BME280;68991;52.122;5.406;2023-07-28T07:52:09;100790.28;;;21.64;70.63
79540;BME280;68991;52.122;5.406;2023-07-28T07:54:36;100789.25;;;21.65;70.56
79540;BME280;68991;52.122;5.406;2023-07-28T07:57:03;100793.72;;;21.66;70.73
79540;BME280;68991;52.122;5.406;2023-07-28T07:59:30;100796.31;;;21.68;70.39
79540;BME280;68991;52.122;5.406;2023-07-28T08:02:01;100793.41;;;21.69;70.25
79540;BME280;68991;52.122;5.406;2023-07-28T08:04:29;100806.97;;;21.71;70.04
79540;BME280;68991;52.122;5.406;2023-07-28T08:06:56;100798.59;;;21.72;69.86
79540;BME280;68991;52.122;5.406;2023-07-28T08:09:22;100802.19;;;21.73;69.96
79540;BME280;68991;52.122;5.406;2023-07-28T08:11:49;100792.97;;;21.74;69.88
79540;BME280;68991;52.122;5.406;2023-07-28T08:14:16;100801.75;;;21.77;69.88
79540;BME280;68991;52.122;5.406;2023-07-28T08:16:42;100802.63;;;21.78;70.13
79540;BME280;68991;52.122;5.406;2023-07-28T08:19:09;100804.19;;;21.80;69.84
79540;BME280;68991;52.122;5.406;2023-07-28T08:21:35;100801.16;;;21.83;70.17
79540;BME280;68991;52.122;5.406;2023-07-28T08:24:03;100803.56;;;21.87;69.80
79540;BME280;68991;52.122;5.406;2023-07-28T08:26:30;100804.31;;;21.89;69.49
79540;BME280;68991;52.122;5.406;2023-07-28T08:28:57;100799.56;;;21.91;69.79
79540;BME280;68991;52.122;5.406;2023-07-28T08:31:23;100806.59;;;21.93;69.69
79540;BME280;68991;52.122;5.406;2023-07-28T08:33:50;100806.47;;;21.95;69.47
79540;BME280;68991;52.122;5.406;2023-07-28T08:36:16;100811.81;;;21.96;69.84
79540;BME280;68991;52.122;5.406;2023-07-28T08:38:43;100804.44;;;21.97;69.62
79540;BME280;68991;52.122;5.406;2023-07-28T08:41:12;100817.13;;;21.98;69.42
79540;BME280;68991;52.122;5.406;2023-07-28T08:43:40;100823.59;;;21.97;69.17
79540;BME280;68991;52.122;5.406;2023-07-28T08:46:08;100820.72;;;21.98;69.10
79540;BME280;68991;52.122;5.406;2023-07-28T08:48:34;100821.41;;;22.00;69.55
79540;BME280;68991;52.122;5.406;2023-07-28T08:51:02;100823.16;;;22.01;69.63
79540;BME280;68991;52.122;5.406;2023-07-28T08:53:28;100819.41;;;22.02;69.31
79540;BME280;68991;52.122;5.406;2023-07-28T08:55:55;100819.25;;;22.04;68.92
79540;BME280;68991;52.122;5.406;2023-07-28T08:58:22;100824.72;;;22.04;69.33
79540;BME280;68991;52.122;5.406;2023-07-28T09:00:51;100826.44;;;22.05;68.81
79540;BME280;68991;52.122;5.406;2023-07-28T09:03:19;100827.31;;;22.05;69.02
79540;BME280;68991;52.122;5.406;2023-07-28T09:05:46;100829.94;;;22.07;68.78
79540;BME280;68991;52.122;5.406;2023-07-28T09:08:14;100827.31;;;22.05;68.91
79540;BME280;68991;52.122;5.406;2023-07-28T09:10:50;100825.44;;;22.06;69.09
79540;BME280;68991;52.122;5.406;2023-07-28T09:13:18;100829.06;;;22.06;69.20
79540;BME280;68991;52.122;5.406;2023-07-28T09:15:45;100829.06;;;22.06;68.86
79540;BME280;68991;52.122;5.406;2023-07-28T09:18:14;100826.16;;;22.08;69.14
79540;BME280;68991;52.122;5.406;2023-07-28T09:20:41;100830.63;;;22.09;68.74
79540;BME280;68991;52.122;5.406;2023-07-28T09:23:08;100832.75;;;22.15;68.50
79540;BME280;68991;52.122;5.406;2023-07-28T09:25:37;100832.31;;;22.19;68.40
79540;BME280;68991;52.122;5.406;2023-07-28T09:28:04;100843.81;;;22.23;68.50
79540;BME280;68991;52.122;5.406;2023-07-28T09:30:49;100829.13;;;22.24;68.67
79540;BME280;68991;52.122;5.406;2023-07-28T09:33:33;100834.28;;;22.27;68.17
79540;BME280;68991;52.122;5.406;2023-07-28T09:36:14;100834.13;;;22.28;68.29
79540;BME280;68991;52.122;5.406;2023-07-28T09:38:43;100833.28;;;22.28;68.24
79540;BME280;68991;52.122;5.406;2023-07-28T09:41:10;100842.50;;;22.27;68.20
79540;BME280;68991;52.122;5.406;2023-07-28T09:43:39;100840.63;;;22.27;67.78
79540;BME280;68991;52.122;5.406;2023-07-28T09:46:09;100845.94;;;22.29;67.92
79540;BME280;68991;52.122;5.406;2023-07-28T09:48:38;100835.72;;;22.31;68.02
79540;BME280;68991;52.122;5.406;2023-07-28T09:51:08;100836.41;;;22.33;67.77
79540;BME280;68991;52.122;5.406;2023-07-28T09:53:41;100840.56;;;22.37;67.52
79540;BME280;68991;52.122;5.406;2023-07-28T09:56:13;100837.53;;;22.40;67.54
79540;BME280;68991;52.122;5.406;2023-07-28T09:58:41;100833.47;;;22.44;67.71
79540;BME280;68991;52.122;5.406;2023-07-28T10:01:09;100840.06;;;22.51;67.33
79540;BME280;68991;52.122;5.406;2023-07-28T10:03:37;100832.84;;;22.50;67.30
79540;BME280;68991;52.122;5.406;2023-07-28T10:06:03;100828.41;;;22.49;67.19
79540;BME280;68991;52.122;5.406;2023-07-28T10:08:31;100838.88;;;22.54;67.38
79540;BME280;68991;52.122;5.406;2023-07-28T10:10:59;100829.03;;;22.61;67.21
79540;BME280;68991;52.122;5.406;2023-07-28T10:13:27;100828.88;;;22.62;66.91
79540;BME280;68991;52.122;5.406;2023-07-28T10:15:54;100831.22;;;22.67;67.00
79540;BME280;68991;52.122;5.406;2023-07-28T10:18:21;100832.91;;;22.68;66.99
79540;BME280;68991;52.122;5.406;2023-07-28T10:20:48;100825.56;;;22.68;66.78
79540;BME280;68991;52.122;5.406;2023-07-28T10:23:22;100834.50;;;22.70;66.66
79540;BME280;68991;52.122;5.406;2023-07-28T10:25:59;100835.88;;;22.74;66.63
79540;BME280;68991;52.122;5.406;2023-07-28T10:28:32;100838.63;;;22.74;66.77
79540;BME280;68991;52.122;5.406;2023-07-28T10:31:02;100833.41;;;22.81;66.42
79540;BME280;68991;52.122;5.406;2023-07-28T10:33:33;100832.78;;;22.87;66.41
79540;BME280;68991;52.122;5.406;2023-07-28T10:38:38;100828.16;;;22.88;66.14
79540;BME280;68991;52.122;5.406;2023-07-28T10:41:18;100829.41;;;22.93;66.02
79540;BME280;68991;52.122;5.406;2023-07-28T10:43:46;100823.78;;;22.95;66.00
79540;BME280;68991;52.122;5.406;2023-07-28T10:46:15;100828.63;;;23.01;66.04
79540;BME280;68991;52.122;5.406;2023-07-28T10:48:47;100830.75;;;23.07;65.77
79540;BME280;68991;52.122;5.406;2023-07-28T10:51:27;100834.34;;;23.07;65.99
79540;BME280;68991;52.122;5.406;2023-07-28T10:54:00;100836.22;;;23.07;65.90
79540;BME280;68991;52.122;5.406;2023-07-28T10:56:28;100841.09;;;23.13;65.54
79540;BME280;68991;52.122;5.406;2023-07-28T10:58:59;100833.09;;;23.19;65.55
79540;BME280;68991;52.122;5.406;2023-07-28T11:01:32;100836.38;;;23.23;65.52
79540;BME280;68991;52.122;5.406;2023-07-28T11:04:20;100838.94;;;23.24;65.53
79540;BME280;68991;52.122;5.406;2023-07-28T11:06:48;100854.81;;;23.30;65.28
79540;BME280;68991;52.122;5.406;2023-07-28T11:09:21;100848.44;;;23.30;65.25
79540;BME280;68991;52.122;5.406;2023-07-28T11:11:49;100850.00;;;23.33;65.16
79540;BME280;68991;52.122;5.406;2023-07-28T11:14:16;100849.53;;;23.37;65.19
79540;BME280;68991;52.122;5.406;2023-07-28T11:16:44;100852.69;;;23.42;64.99
79540;BME280;68991;52.122;5.406;2023-07-28T11:19:17;100851.84;;;23.42;64.91
79540;BME280;68991;52.122;5.406;2023-07-28T11:21:48;100852.97;;;23.39;65.04
79540;BME280;68991;52.122;5.406;2023-07-28T11:24:18;100856.03;;;23.36;64.98
79540;BME280;68991;52.122;5.406;2023-07-28T11:26:46;100856.22;;;23.35;65.16
79540;BME280;68991;52.122;5.406;2023-07-28T11:29:12;100859.09;;;23.33;65.16
79540;BME280;68991;52.122;5.406;2023-07-28T11:31:41;100860.44;;;23.29;65.13
79540;BME280;68991;52.122;5.406;2023-07-28T11:34:17;100861.44;;;23.28;65.23
79540;BME280;68991;52.122;5.406;2023-07-28T11:36:44;100869.53;;;23.29;65.30
79540;BME280;68991;52.122;5.406;2023-07-28T11:39:11;100865.59;;;23.32;65.28
79540;BME280;68991;52.122;5.406;2023-07-28T11:41:39;100871.81;;;23.34;65.23
79540;BME280;68991;52.122;5.406;2023-07-28T11:44:06;100859.97;;;23.34;65.23
79540;BME280;68991;52.122;5.406;2023-07-28T11:49:17;100852.44;;;23.36;65.26
79540;BME280;68991;52.122;5.406;2023-07-28T11:51:52;100859.66;;;23.37;65.21
79540;BME280;68991;52.122;5.406;2023-07-28T11:54:25;100852.97;;;23.39;65.02
79540;BME280;68991;52.122;5.406;2023-07-28T11:56:55;100854.97;;;23.47;65.02
79540;BME280;68991;52.122;5.406;2023-07-28T11:59:22;100862.72;;;23.51;65.18
79540;BME280;68991;52.122;5.406;2023-07-28T12:01:55;100856.38;;;23.51;65.10
79540;BME280;68991;52.122;5.406;2023-07-28T12:04:29;100857.47;;;23.58;65.13
79540;BME280;68991;52.122;5.406;2023-07-28T12:07:04;100859.19;;;23.59;64.99
79540;BME280;68991;52.122;5.406;2023-07-28T12:09:53;100860.06;;;23.59;65.32
79540;BME280;68991;52.122;5.406;2023-07-28T12:12:30;100868.66;;;23.64;65.05
79540;BME280;68991;52.122;5.406;2023-07-28T12:15:28;100857.34;;;23.67;65.13
79540;BME280;68991;52.122;5.406;2023-07-28T12:20:43;100866.22;;;23.61;65.12
79540;BME280;68991;52.122;5.406;2023-07-28T12:23:18;100870.72;;;23.62;65.16
79540;BME280;68991;52.122;5.406;2023-07-28T12:25:49;100867.47;;;23.67;65.07
79540;BME280;68991;52.122;5.406;2023-07-28T12:28:17;100868.19;;;23.69;64.52
79540;BME280;68991;52.122;5.406;2023-07-28T12:30:45;100864.56;;;23.68;64.04
79540;BME280;68991;52.122;5.406;2023-07-28T12:33:15;100871.00;;;23.77;63.55
79540;BME280;68991;52.122;5.406;2023-07-28T12:35:45;100865.88;;;23.82;64.29
79540;BME280;68991;52.122;5.406;2023-07-28T12:38:14;100868.63;;;23.82;64.21
79540;BME280;68991;52.122;5.406;2023-07-28T12:40:43;100861.25;;;23.83;64.26
79540;BME280;68991;52.122;5.406;2023-07-28T12:43:13;100864.66;;;23.85;64.15
79540;BME280;68991;52.122;5.406;2023-07-28T12:45:42;100859.56;;;23.90;64.09
79540;BME280;68991;52.122;5.406;2023-07-28T12:48:11;100866.94;;;23.89;63.98
79540;BME280;68991;52.122;5.406;2023-07-28T12:50:46;100866.94;;;23.89;64.30
79540;BME280;68991;52.122;5.406;2023-07-28T12:53:13;100873.31;;;23.90;64.07
79540;BME280;68991;52.122;5.406;2023-07-28T12:55:45;100873.69;;;23.95;64.04
79540;BME280;68991;52.122;5.406;2023-07-28T12:58:14;100863.78;;;24.02;64.32
79540;BME280;68991;52.122;5.406;2023-07-28T13:00:44;100866.56;;;24.10;63.81
79540;BME280;68991;52.122;5.406;2023-07-28T13:03:13;100860.19;;;24.09;63.76
79540;BME280;68991;52.122;5.406;2023-07-28T13:05:40;100872.75;;;24.12;64.11